Time;durP1;ratioP1;P1;durP2;ratioP2;P2;SDS_P1;SDS_P2;PMS_P1;PMS_P2;Temp;Humidity;BMP_temperature;BMP_pressure;BME280_temperature;BME280_humidity;BME280_pressure;Samples;Min_cycle;Max_cycle;Signal;HPM_P1;HPM_P2
2022/05/14 00:01:20;;;;;;;0.93;0.93;;;;;;;15.27;48.86;97169.91;5015214;28;20187;-70
2022/05/14 00:03:46;;;;;;;3.03;0.90;;;;;;;15.31;49.18;97170.22;5014916;28;20572;-70
2022/05/14 00:06:14;;;;;;;2.77;1.03;;;;;;;15.29;49.17;97169.66;5014981;28;20203;-69
2022/05/14 00:08:40;;;;;;;1.40;0.97;;;;;;;15.24;49.47;97172.25;5014499;28;20187;-70
2022/05/14 00:13:52;;;;;;;1999.90;999.90;;;;;;;15.30;49.11;97173.91;5014736;28;20191;-70
2022/05/14 00:16:19;;;;;;;1141.23;388.50;;;;;;;15.22;49.53;97169.84;4996994;28;20237;-70
2022/05/14 00:18:45;;;;;;;0.47;0.47;;;;;;;15.32;48.89;97171.81;5014796;28;20223;-70
2022/05/14 00:21:12;;;;;;;0.30;0.30;;;;;;;15.19;49.52;97170.34;5012591;28;20199;-70
2022/05/14 00:23:38;;;;;;;0.17;0.17;;;;;;;15.13;49.75;97171.31;5015240;28;20260;-70
2022/05/14 00:26:04;;;;;;;0.20;0.20;;;;;;;15.12;49.81;97171.56;5014592;28;20579;-70
2022/05/14 00:28:29;;;;;;;0.10;0.10;;;;;;;15.08;49.89;97165.19;5014287;28;20237;-70
2022/05/14 00:30:55;;;;;;;0.30;0.23;;;;;;;15.13;49.94;97167.88;5014604;28;20648;-70
2022/05/14 00:33:21;;;;;;;0.20;0.20;;;;;;;15.02;50.38;97164.31;5014318;28;20179;-72
2022/05/14 00:35:47;;;;;;;0.97;0.90;;;;;;;15.07;50.60;97159.09;4997349;28;20270;-70
2022/05/14 00:38:13;;;;;;;1.30;1.20;;;;;;;14.84;51.13;97170.69;5013807;28;20275;-70
2022/05/14 00:40:44;;;;;;;1.53;1.27;;;;;;;14.72;52.04;97175.25;5014291;28;20192;-70
2022/05/14 00:43:10;;;;;;;2.73;1.33;;;;;;;14.50;53.02;97169.16;5014387;28;20233;-71
2022/05/14 00:45:39;;;;;;;1.93;1.83;;;;;;;14.53;55.98;97173.94;5013938;28;20286;-70
2022/05/14 00:48:06;;;;;;;4.97;4.60;;;;;;;14.11;60.10;97169.03;5014536;28;20203;-70
2022/05/14 00:50:46;;;;;;;5.93;5.43;;;;;;;14.04;60.93;97165.00;5014142;28;20706;-69
2022/05/14 00:53:26;;;;;;;5.67;5.23;;;;;;;13.76;62.04;97167.66;5014210;28;20182;-69
2022/05/14 00:55:55;;;;;;;3.97;3.43;;;;;;;13.57;62.90;97173.13;4983030;28;20180;-69
2022/05/14 00:58:38;;;;;;;5.23;3.70;;;;;;;13.63;62.45;97168.75;5014247;28;20190;-71
2022/05/14 01:01:04;;;;;;;3.10;2.57;;;;;;;13.61;62.06;97162.91;5013846;28;20187;-70
2022/05/14 01:03:29;;;;;;;3.03;2.40;;;;;;;13.70;61.46;97164.16;5013772;28;20206;-70
2022/05/14 01:05:57;;;;;;;4.87;2.47;;;;;;;13.81;61.33;97168.56;5013659;28;20211;-70
2022/05/14 01:08:23;;;;;;;3.07;2.20;;;;;;;13.59;62.77;97163.16;5013380;28;20562;-70
2022/05/14 01:10:49;;;;;;;3.83;2.50;;;;;;;13.58;63.00;97161.56;5013943;28;20187;-69
2022/05/14 01:13:14;;;;;;;5.87;2.90;;;;;;;13.47;63.71;97158.97;5013644;28;20266;-70
2022/05/14 01:16:01;;;;;;;4.03;3.27;;;;;;;13.38;64.11;97161.16;5013573;28;20188;-70
2022/05/14 01:18:30;;;;;;;3.50;2.70;;;;;;;13.31;64.28;97158.69;5013875;28;20231;-70
2022/05/14 01:20:58;;;;;;;2.80;2.60;;;;;;;13.36;64.10;97163.25;5013363;28;20199;-70
2022/05/14 01:26:28;;;;;;;2.90;2.70;;;;;;;13.29;63.57;97158.13;5013320;28;20233;-70
2022/05/14 01:28:56;;;;;;;3.03;2.60;;;;;;;13.22;63.96;97160.09;5013528;28;20257;-69
2022/05/14 01:31:21;;;;;;;2.73;2.50;;;;;;;13.16;63.99;97166.28;4995711;28;20282;-71
2022/05/14 01:33:47;;;;;;;6.53;2.50;;;;;;;13.18;64.66;97158.97;5009608;28;20610;-70
2022/05/14 01:36:12;;;;;;;4.17;2.90;;;;;;;13.06;65.41;97160.78;5013213;28;20183;-70
2022/05/14 01:38:37;;;;;;;3.07;2.77;;;;;;;13.13;65.79;97161.50;5013288;28;20636;-70
2022/05/14 01:41:03;;;;;;;4.67;3.00;;;;;;;13.10;66.33;97161.91;5013480;28;20187;-70
2022/05/14 01:43:29;;;;;;;3.00;2.70;;;;;;;13.05;66.56;97168.91;5012891;28;20639;-70
2022/05/14 01:45:55;;;;;;;3.13;2.83;;;;;;;13.15;66.22;97163.91;5013393;28;20210;-70
2022/05/14 01:48:20;;;;;;;5.93;2.77;;;;;;;13.18;66.40;97168.69;5013438;28;20191;-71
2022/05/14 01:50:46;;;;;;;4.13;2.70;;;;;;;12.97;67.31;97156.13;5013270;28;20609;-70
2022/05/14 01:53:11;;;;;;;4.40;3.20;;;;;;;12.89;67.57;97165.16;5012642;28;20206;-70
2022/05/14 01:55:37;;;;;;;3.50;2.80;;;;;;;12.95;67.47;97166.06;5012952;28;20192;-70
2022/05/14 02:00:48;;;;;;;2.83;2.37;;;;;;;12.80;67.89;97156.84;5012456;28;20739;-70
2022/05/14 02:03:13;;;;;;;2.90;2.40;;;;;;;12.80;68.42;97162.09;5012809;28;20183;-70
2022/05/14 02:05:38;;;;;;;4.80;2.77;;;;;;;12.89;68.20;97154.63;5012936;28;20558;-70
2022/05/14 02:08:04;;;;;;;5.10;2.80;;;;;;;12.93;68.45;97159.19;5012954;28;20219;-70
2022/05/14 02:10:29;;;;;;;3.57;2.70;;;;;;;12.96;68.66;97154.53;5012867;28;20217;-70
2022/05/14 02:12:55;;;;;;;4.07;2.33;;;;;;;12.74;69.66;97160.41;5013099;28;20190;-70
2022/05/14 02:15:21;;;;;;;3.03;2.30;;;;;;;12.63;70.23;97155.94;5013072;28;20191;-69
2022/05/14 02:17:46;;;;;;;5.63;2.43;;;;;;;12.61;70.63;97154.56;5012305;28;20284;-70
2022/05/14 02:20:12;;;;;;;3.63;2.97;;;;;;;12.67;70.67;97151.81;5012164;28;20187;-70
2022/05/14 02:22:39;;;;;;;4.20;2.43;;;;;;;12.56;70.98;97154.44;4995110;28;20543;-70
2022/05/14 02:25:05;;;;;;;2.73;2.03;;;;;;;12.52;70.70;97154.13;5012585;28;20269;-70
2022/05/14 02:27:30;;;;;;;2.83;2.20;;;;;;;12.43;71.05;97150.22;5012322;28;20241;-70
2022/05/14 02:29:55;;;;;;;3.13;2.10;;;;;;;12.35;70.90;97150.56;5012650;28;20652;-70
2022/05/14 02:32:24;;;;;;;3.53;2.23;;;;;;;12.44;71.12;97160.50;4995040;28;20183;-70
2022/05/14 02:34:50;;;;;;;5.10;2.40;;;;;;;12.50;71.54;97153.53;5000134;28;20652;-70
2022/05/14 02:37:17;;;;;;;3.37;2.90;;;;;;;12.58;72.16;97157.66;5012751;28;20415;-70
2022/05/14 02:39:43;;;;;;;5.77;3.20;;;;;;;12.34;74.83;97156.84;4994723;28;20211;-70
2022/05/14 02:42:08;;;;;;;5.60;3.63;;;;;;;12.48;75.62;97161.66;5012240;28;20214;-70
2022/05/14 02:44:34;;;;;;;6.50;3.37;;;;;;;12.32;76.55;97159.72;5014041;28;20637;-70
2022/05/14 02:46:59;;;;;;;4.17;3.73;;;;;;;12.15;78.17;97158.00;5016178;28;20214;-70
2022/05/14 02:49:24;;;;;;;4.17;3.40;;;;;;;12.24;77.75;97161.88;5016076;28;20191;-71
2022/05/14 02:51:50;;;;;;;4.97;3.60;;;;;;;12.07;78.28;97159.13;5015979;28;20235;-70
2022/05/14 02:54:15;;;;;;;6.20;3.10;;;;;;;12.06;78.35;97166.22;5016291;28;20539;-70
2022/05/14 02:56:41;;;;;;;4.70;3.03;;;;;;;12.15;77.26;97163.25;5016079;28;20183;-70
2022/05/14 02:59:07;;;;;;;3.43;2.60;;;;;;;12.12;76.97;97161.88;5016423;28;20187;-70
2022/05/14 03:01:33;;;;;;;3.70;3.00;;;;;;;12.06;77.59;97160.16;5016188;28;20198;-70
2022/05/14 03:03:59;;;;;;;4.50;2.90;;;;;;;12.02;77.53;97166.88;5016202;28;20194;-70
2022/05/14 03:06:24;;;;;;;4.50;2.80;;;;;;;11.91;78.23;97157.97;5015994;28;20202;-70
2022/05/14 03:08:51;;;;;;;4.30;2.33;;;;;;;11.96;77.89;97168.59;5031130;28;20624;-70
2022/05/14 03:11:16;;;;;;;7.77;2.60;;;;;;;11.91;78.56;97165.84;5016030;28;20190;-70
2022/05/14 03:13:42;;;;;;;3.07;2.77;;;;;;;11.89;78.38;97167.06;5015745;28;20211;-70
2022/05/14 03:16:08;;;;;;;3.00;2.33;;;;;;;12.02;77.81;97167.69;5016159;28;20215;-70
2022/05/14 03:18:33;;;;;;;3.17;2.63;;;;;;;12.08;78.18;97166.78;5015888;28;20310;-69
2022/05/14 03:21:00;;;;;;;4.70;2.87;;;;;;;11.98;78.46;97161.25;5015283;28;20547;-70
2022/05/14 03:23:25;;;;;;;4.63;2.67;;;;;;;12.03;78.48;97161.41;5015285;28;20190;-70
2022/05/14 03:25:50;;;;;;;4.57;2.80;;;;;;;11.93;78.89;97162.97;5015514;28;20195;-70
2022/05/14 03:28:17;;;;;;;5.23;3.10;;;;;;;12.06;78.56;97162.78;5015886;28;20680;-70
2022/05/14 03:30:43;;;;;;;3.37;2.83;;;;;;;12.21;77.52;97159.69;5015542;28;20179;-70
2022/05/14 03:33:08;;;;;;;2.67;2.30;;;;;;;12.15;76.95;97158.00;5005988;28;20238;-70
2022/05/14 03:35:34;;;;;;;3.10;2.37;;;;;;;12.06;77.51;97163.56;5011917;28;20640;-70
2022/05/14 03:37:59;;;;;;;3.40;2.60;;;;;;;11.95;77.93;97164.34;5015255;28;20651;-70
2022/05/14 03:40:25;;;;;;;2.53;2.33;;;;;;;12.08;77.00;97164.16;5015279;28;20636;-71
2022/05/14 03:42:50;;;;;;;3.10;2.47;;;;;;;11.94;77.08;97164.56;5015454;28;20185;-70
2022/05/14 03:45:16;;;;;;;3.83;2.30;;;;;;;11.94;76.28;97164.56;5015028;28;20191;-70
2022/05/14 03:47:41;;;;;;;4.03;2.10;;;;;;;12.09;74.31;97160.47;5015582;28;20192;-70
2022/05/14 03:50:07;;;;;;;3.30;2.27;;;;;;;12.19;73.72;97167.03;5014944;28;20666;-71
2022/05/14 03:52:32;;;;;;;4.00;2.17;;;;;;;12.25;73.17;97163.50;4997585;28;20298;-71
2022/05/14 03:54:57;;;;;;;2.77;2.30;;;;;;;12.28;73.67;97163.81;5015113;28;20245;-70
2022/05/14 03:57:23;;;;;;;4.27;2.60;;;;;;;12.29;73.62;97164.63;5015263;28;20636;-70
2022/05/14 03:59:48;;;;;;;2.70;1.90;;;;;;;12.29;73.79;97160.19;5015175;28;20651;-70
2022/05/14 04:02:14;;;;;;;3.33;2.30;;;;;;;12.61;72.00;97157.19;5015094;28;20171;-70
2022/05/14 04:04:39;;;;;;;2.20;2.00;;;;;;;12.62;71.72;97159.59;5015065;28;20680;-70
2022/05/14 04:07:05;;;;;;;3.53;2.10;;;;;;;12.70;71.42;97153.19;5014535;28;20226;-70
2022/05/14 04:09:30;;;;;;;2.23;1.97;;;;;;;12.83;69.79;97168.72;5015001;28;20299;-70
2022/05/14 04:11:56;;;;;;;3.73;1.90;;;;;;;12.82;69.83;97159.22;5014486;28;20232;-70
2022/05/14 04:14:23;;;;;;;4.73;1.90;;;;;;;13.11;68.50;97158.25;5014886;28;20219;-70
2022/05/14 04:16:49;;;;;;;2.73;1.90;;;;;;;13.05;68.76;97156.56;5014784;28;20580;-70
2022/05/14 04:19:15;;;;;;;4.87;2.30;;;;;;;13.03;68.55;97160.47;5014885;28;20230;-70
2022/05/14 04:21:40;;;;;;;1.80;1.70;;;;;;;13.10;68.16;97161.09;5013759;28;20187;-70
2022/05/14 04:24:07;;;;;;;1.80;1.60;;;;;;;13.15;68.49;97163.91;5014188;28;20195;-71
2022/05/14 04:26:33;;;;;;;3.70;2.30;;;;;;;13.41;67.53;97162.53;5014355;28;20261;-70
2022/05/14 04:28:59;;;;;;;5.50;1.90;;;;;;;13.39;67.91;97159.34;5014577;28;20585;-70
2022/05/14 04:31:25;;;;;;;2.77;1.70;;;;;;;13.54;67.47;97165.69;5014791;28;20570;-71
2022/05/14 04:33:50;;;;;;;4.07;2.00;;;;;;;13.53;67.86;97165.94;5011074;28;20199;-72
2022/05/14 04:36:16;;;;;;;1.97;1.63;;;;;;;13.62;67.52;97172.41;5013824;28;20198;-71
2022/05/14 04:38:41;;;;;;;2.13;1.90;;;;;;;13.71;67.19;97171.00;5023845;28;20645;-70
2022/05/14 04:41:07;;;;;;;2.03;1.73;;;;;;;13.52;67.38;97169.59;5004125;28;20195;-70
2022/05/14 04:43:33;;;;;;;3.37;1.90;;;;;;;13.32;68.39;97170.00;5014317;28;20270;-70
2022/05/14 04:45:59;;;;;;;2.20;1.70;;;;;;;13.50;68.19;97171.66;5013867;28;20664;-70
2022/05/14 04:48:24;;;;;;;5.40;1.80;;;;;;;13.59;67.70;97171.06;5014356;28;20191;-70
2022/05/14 04:50:50;;;;;;;2.53;1.70;;;;;;;13.93;66.07;97171.13;5014133;28;20637;-70
2022/05/14 04:53:16;;;;;;;7.27;2.00;;;;;;;14.28;65.19;97163.78;5014102;28;20250;-70
2022/05/14 04:55:42;;;;;;;2.00;1.67;;;;;;;14.77;63.32;97172.69;5014017;28;20194;-70
2022/05/14 04:58:08;;;;;;;2.13;1.73;;;;;;;14.97;62.02;97172.97;5013757;28;20187;-71
2022/05/14 05:00:35;;;;;;;3.03;1.80;;;;;;;15.26;61.08;97180.72;5014132;28;20207;-70
2022/05/14 05:05:51;;;;;;;2.07;1.70;;;;;;;15.87;59.77;97182.22;5013701;28;20571;-71
2022/05/14 05:08:17;;;;;;;1.90;1.80;;;;;;;16.21;58.28;97170.34;5013331;28;20192;-71
2022/05/14 05:10:43;;;;;;;2.27;1.70;;;;;;;16.44;57.96;97176.34;5013823;28;20179;-70
2022/05/14 05:13:11;;;;;;;2.30;1.70;;;;;;;16.73;56.94;97179.44;5013789;28;20575;-70
2022/05/14 05:15:37;;;;;;;1.87;1.63;;;;;;;16.94;56.69;97175.88;5013097;28;20738;-71
2022/05/14 05:18:02;;;;;;;2.67;1.60;;;;;;;17.07;55.86;97182.53;5012797;28;20226;-70
2022/05/14 05:20:28;;;;;;;1.50;1.40;;;;;;;17.14;55.61;97185.75;5013432;28;20189;-69
2022/05/14 05:22:53;;;;;;;2.50;1.63;;;;;;;17.48;54.76;97179.00;5013053;28;20191;-70
2022/05/14 05:25:19;;;;;;;2.03;1.70;;;;;;;17.95;53.42;97192.13;5013054;28;20191;-70
2022/05/14 05:27:44;;;;;;;2.88;1.63;;;;;;;17.85;53.34;97189.47;5013201;28;20253;-70
2022/05/14 05:30:10;;;;;;;5.18;1.60;;;;;;;17.88;53.50;97186.31;5013081;28;20232;-69
2022/05/14 05:32:36;;;;;;;1.77;1.58;;;;;;;18.06;52.54;97185.78;5009882;28;20191;-69
2022/05/14 05:35:01;;;;;;;3.95;1.77;;;;;;;18.00;52.82;97194.78;5013189;28;20739;-70
2022/05/14 05:37:26;;;;;;;3.35;1.88;;;;;;;18.42;52.33;97194.56;5013072;28;20663;-71
2022/05/14 05:39:52;;;;;;;5.57;2.63;;;;;;;18.34;53.33;97192.41;4996956;28;20593;-70
2022/05/14 05:42:18;;;;;;;3.95;2.20;;;;;;;18.62;53.32;97191.91;5012937;28;20187;-70
2022/05/14 05:44:43;;;;;;;2.85;2.20;;;;;;;19.01;53.06;97196.59;5013187;28;20264;-70
2022/05/14 05:47:09;;;;;;;3.30;2.50;;;;;;;18.95;53.67;97195.81;5013073;28;20250;-69
2022/05/14 05:49:39;;;;;;;5.10;2.60;;;;;;;18.94;54.47;97191.59;5012900;28;20195;-71
2022/05/14 05:52:04;;;;;;;3.50;2.30;;;;;;;18.70;53.17;97193.22;5012597;28;20641;-71
2022/05/14 05:57:13;;;;;;;3.92;2.50;;;;;;;19.09;53.70;97194.19;5012605;28;20206;-70
2022/05/14 05:59:39;;;;;;;4.50;2.50;;;;;;;19.21;54.14;97195.75;5012793;28;20628;-71
2022/05/14 06:02:05;;;;;;;3.05;2.38;;;;;;;19.16;54.33;97185.94;5012377;28;20183;-70
2022/05/14 06:04:30;;;;;;;4.20;2.70;;;;;;;19.20;54.97;97187.00;5011950;28;20191;-71
2022/05/14 06:06:56;;;;;;;4.45;2.70;;;;;;;19.38;54.94;97188.25;5010751;28;20213;-70
2022/05/14 06:09:29;;;;;;;2.88;2.60;;;;;;;19.29;54.48;97193.31;4992117;28;20187;-71
2022/05/14 06:11:55;;;;;;;3.25;2.40;;;;;;;19.32;50.96;97199.97;4993681;28;20213;-70
2022/05/14 06:14:21;;;;;;;4.82;2.40;;;;;;;19.29;51.47;97189.88;4993308;28;20262;-70
2022/05/14 06:16:47;;;;;;;2.85;1.90;;;;;;;19.64;50.46;97204.91;5009973;28;20202;-71
2022/05/14 06:19:13;;;;;;;3.83;2.03;;;;;;;19.54;49.88;97196.97;5014697;28;20219;-70
2022/05/14 06:21:38;;;;;;;3.03;2.65;;;;;;;19.30;54.69;97194.13;5015928;28;20191;-70
2022/05/14 06:24:06;;;;;;;4.03;2.67;;;;;;;19.07;55.32;97206.94;5016349;28;20206;-70
2022/05/14 06:26:32;;;;;;;3.95;3.10;;;;;;;19.08;55.66;97199.78;5016417;28;20203;-70
2022/05/14 06:28:59;;;;;;;8.68;2.67;;;;;;;19.02;55.62;97198.19;5016909;28;20625;-70
2022/05/14 06:31:24;;;;;;;5.13;2.70;;;;;;;19.26;54.81;97198.41;5009371;28;20209;-71
2022/05/14 06:33:50;;;;;;;4.57;2.70;;;;;;;19.34;53.77;97193.31;5012967;28;20607;-71
2022/05/14 06:36:16;;;;;;;2.42;2.22;;;;;;;19.54;53.85;97197.78;4998912;28;20179;-70
2022/05/14 06:38:42;;;;;;;5.25;2.80;;;;;;;19.51;53.40;97193.00;5016681;28;20221;-70
2022/05/14 06:41:10;;;;;;;4.93;3.00;;;;;;;19.44;54.19;97197.81;5016421;28;20191;-70
2022/05/14 06:43:37;;;;;;;3.85;2.20;;;;;;;19.63;52.41;97196.13;5016532;28;20187;-75
2022/05/14 06:46:02;;;;;;;5.47;2.03;;;;;;;20.04;53.10;97194.03;5016874;28;20210;-74
2022/05/14 06:48:28;;;;;;;3.75;2.28;;;;;;;20.36;52.01;97192.75;5017354;28;20194;-73
2022/05/14 06:50:54;;;;;;;3.00;1.95;;;;;;;20.62;50.52;97191.44;5017091;28;20187;-74
2022/05/14 06:53:22;;;;;;;2.20;2.00;;;;;;;20.73;51.28;97195.63;5016586;28;20628;-76
2022/05/14 06:55:52;;;;;;;3.25;2.22;;;;;;;20.87;51.35;97195.75;5016691;28;20187;-74
2022/05/14 06:58:20;;;;;;;3.78;2.05;;;;;;;20.78;48.50;97197.44;5016801;28;20269;-75
2022/05/14 07:00:46;;;;;;;2.35;1.80;;;;;;;20.81;50.05;97192.34;5016152;28;20184;-74
2022/05/14 07:08:42;;;;;;;4.95;1.45;;;;;;;20.98;46.67;97200.69;5015279;28;20261;-77
2022/05/14 07:11:09;;;;;;;1.90;1.50;;;;;;;21.23;47.23;97198.88;5016034;28;20191;-75
2022/05/14 07:13:35;;;;;;;2.25;1.80;;;;;;;21.02;47.00;97200.91;5016359;28;20191;-79
2022/05/14 07:16:00;;;;;;;2.70;1.60;;;;;;;21.28;45.91;97207.59;5016650;28;20245;-78
2022/05/14 07:18:25;;;;;;;2.40;1.23;;;;;;;21.28;44.50;97212.94;5017421;28;20280;-79
2022/05/14 07:20:51;;;;;;;4.60;1.45;;;;;;;20.97;44.55;97207.09;5017403;28;20203;-76
2022/05/14 07:23:16;;;;;;;3.88;1.30;;;;;;;21.22;44.10;97205.28;5015365;28;20633;-75
2022/05/14 07:25:41;;;;;;;1.40;1.30;;;;;;;21.64;45.45;97207.94;5015913;28;20199;-75
2022/05/14 07:28:08;;;;;;;3.80;1.50;;;;;;;21.55;43.84;97199.00;5015158;28;20196;-74
2022/05/14 07:30:34;;;;;;;5.57;1.58;;;;;;;21.54;43.85;97206.22;5010716;28;20184;-71
2022/05/14 07:33:00;;;;;;;4.10;1.55;;;;;;;21.69;43.92;97207.88;5013307;28;20206;-73
2022/05/14 07:35:26;;;;;;;4.75;1.20;;;;;;;21.63;43.38;97197.56;5015677;28;20187;-74
2022/05/14 07:37:56;;;;;;;1.40;1.02;;;;;;;21.76;41.06;97204.84;5015185;28;20189;-73
2022/05/14 07:40:26;;;;;;;3.15;1.70;;;;;;;21.72;41.21;97211.88;5015635;28;20262;-72
2022/05/14 07:43:10;;;;;;;2.35;1.05;;;;;;;21.40;39.32;97213.31;5014820;28;20633;-74
2022/05/14 07:45:45;;;;;;;2.35;1.40;;;;;;;21.54;40.18;97206.22;5015325;28;20194;-71
2022/05/14 07:48:20;;;;;;;1.10;1.00;;;;;;;21.58;39.62;97211.75;5005124;28;20680;-73
2022/05/14 07:50:45;;;;;;;1.45;1.00;;;;;;;21.61;36.29;97208.53;5014987;28;20541;-73
2022/05/14 07:53:11;;;;;;;1.40;1.00;;;;;;;21.63;37.92;97206.34;5015059;28;20187;-73
2022/05/14 07:55:37;;;;;;;1.10;1.00;;;;;;;21.94;38.26;97204.09;5015092;28;20644;-73
2022/05/14 07:58:03;;;;;;;3.00;1.45;;;;;;;22.09;38.98;97205.75;5015128;28;20194;-73
2022/05/14 08:00:29;;;;;;;1.65;1.40;;;;;;;22.02;38.55;97203.44;5014875;28;20184;-74
2022/05/14 08:02:54;;;;;;;1.25;0.90;;;;;;;22.16;38.37;97200.84;5015316;28;20318;-72
2022/05/14 08:05:20;;;;;;;1.67;1.05;;;;;;;22.24;39.18;97200.19;5015012;28;20636;-72
2022/05/14 08:07:46;;;;;;;2.30;1.05;;;;;;;22.22;40.19;97203.16;5014015;28;20318;-72
2022/05/14 08:10:13;;;;;;;2.13;1.20;;;;;;;22.14;41.18;97203.00;5014747;28;20179;-74
2022/05/14 08:12:41;;;;;;;4.80;1.67;;;;;;;22.24;41.94;97208.97;5014260;28;20183;-72
2022/05/14 08:15:09;;;;;;;1.65;1.40;;;;;;;22.19;41.08;97202.94;5014570;28;20274;-72
2022/05/14 08:17:35;;;;;;;3.08;1.35;;;;;;;22.38;41.29;97199.16;5014766;28;20623;-72
2022/05/14 08:20:00;;;;;;;3.88;1.80;;;;;;;21.84;41.91;97202.34;5014230;28;20223;-70
2022/05/14 08:25:10;;;;;;;4.22;1.60;;;;;;;22.20;43.08;97204.53;5014607;28;20256;-69
2022/05/14 08:27:44;;;;;;;3.63;1.80;;;;;;;22.02;43.18;97199.97;5014149;28;20289;-70
2022/05/14 08:30:14;;;;;;;4.38;1.50;;;;;;;21.45;45.74;97194.59;5010172;28;20241;-71
2022/05/14 08:32:39;;;;;;;3.10;2.20;;;;;;;21.67;45.83;97195.91;5001019;28;20191;-70
2022/05/14 08:35:05;;;;;;;1.60;1.50;;;;;;;22.10;44.54;97197.47;5014469;28;20183;-72
2022/05/14 08:37:31;;;;;;;3.55;1.77;;;;;;;21.08;46.11;97202.44;5014371;28;20203;-70
2022/05/14 08:39:56;;;;;;;5.97;2.00;;;;;;;20.40;47.96;97199.91;5013690;28;20191;-68
2022/05/14 08:42:21;;;;;;;1.92;1.60;;;;;;;20.52;47.12;97200.34;5013402;28;20210;-70
2022/05/14 08:44:49;;;;;;;4.75;1.85;;;;;;;20.28;48.13;97197.56;5029038;28;20684;-70
2022/05/14 08:47:57;;;;;;;5.15;1.80;;;;;;;20.36;47.79;97196.22;5013520;28;20226;-70
2022/05/14 08:50:30;;;;;;;6.20;1.90;;;;;;;20.34;48.05;97193.81;4934757;29;20201;-71
2022/05/14 08:53:00;;;;;;;1.60;1.50;;;;;;;19.96;48.48;97197.25;5003966;28;20668;-70
2022/05/14 08:55:38;;;;;;;2.00;1.80;;;;;;;19.63;48.79;97193.47;5014028;28;20175;-71
2022/05/14 08:58:18;;;;;;;1.63;1.50;;;;;;;20.09;47.92;97191.34;5013852;28;20584;-71
2022/05/14 09:00:44;;;;;;;1.90;1.67;;;;;;;19.86;48.42;97192.81;5013841;28;20178;-72
2022/05/14 09:03:09;;;;;;;2.97;1.50;;;;;;;20.31;47.92;97194.38;5005614;28;20183;-73
2022/05/14 09:05:37;;;;;;;2.42;1.60;;;;;;;20.89;47.04;97188.28;5005790;28;20594;-72
2022/05/14 09:08:03;;;;;;;2.88;1.70;;;;;;;20.65;47.39;97181.03;5011879;28;20226;-71
2022/05/14 09:10:40;;;;;;;2.83;1.70;;;;;;;20.58;46.45;97188.56;4996799;28;20187;-71
2022/05/14 09:13:08;;;;;;;2.97;1.63;;;;;;;20.73;46.80;97187.66;5013656;28;20249;-73
2022/05/14 09:15:40;;;;;;;2.70;1.88;;;;;;;20.34;46.89;97193.81;5013476;28;20183;-71
2022/05/14 09:18:13;;;;;;;5.80;2.13;;;;;;;20.73;47.33;97188.41;4994781;28;20254;-71
2022/05/14 09:20:43;;;;;;;8.60;5.05;;;;;;;20.92;46.36;97190.38;5013177;28;20228;-69
2022/05/14 09:23:09;;;;;;;2.55;2.20;;;;;;;20.50;47.02;97180.41;5012512;28;20179;-68
2022/05/14 09:25:41;;;;;;;6.53;3.30;;;;;;;20.79;47.58;97183.06;5012436;28;20199;-69
2022/05/14 09:28:31;;;;;;;3.58;2.97;;;;;;;20.98;46.24;97178.56;5012571;28;20187;-68
2022/05/14 09:30:59;;;;;;;4.97;2.60;;;;;;;21.20;46.61;97186.09;5005877;28;20271;-70
2022/05/14 09:33:34;;;;;;;2.83;2.50;;;;;;;20.77;46.77;97179.88;5011689;28;20262;-70
2022/05/14 09:36:00;;;;;;;4.78;2.88;;;;;;;20.95;46.54;97181.81;5012491;28;20846;-70
2022/05/14 09:38:27;;;;;;;5.05;3.08;;;;;;;21.22;45.61;97176.75;5012991;28;20232;-71
2022/05/14 09:40:55;;;;;;;1.58;1.48;;;;;;;21.69;44.94;97173.19;5013201;28;20186;-69
2022/05/14 09:43:26;;;;;;;5.53;2.13;;;;;;;21.30;45.13;97180.63;5012644;28;20184;-70
2022/05/14 09:46:00;;;;;;;2.60;2.03;;;;;;;20.96;45.68;97181.50;5013308;28;20729;-70
2022/05/14 09:48:36;;;;;;;3.42;1.90;;;;;;;20.42;46.73;97175.66;5012526;28;20183;-70
2022/05/14 09:51:08;;;;;;;2.17;1.70;;;;;;;20.55;46.88;97170.50;5013033;28;20187;-70
2022/05/14 09:53:41;;;;;;;3.13;1.88;;;;;;;20.40;46.88;97181.25;5012781;28;20226;-69
2022/05/14 09:56:06;;;;;;;2.97;1.67;;;;;;;20.32;47.69;97174.69;5012752;28;20195;-69
2022/05/14 09:58:41;;;;;;;7.25;2.22;;;;;;;19.99;48.33;97171.97;5012588;28;20321;-70
2022/05/14 10:01:18;;;;;;;2.67;1.65;;;;;;;20.19;48.52;97167.28;5013043;28;20202;-69
2022/05/14 10:03:55;;;;;;;1.65;1.55;;;;;;;20.37;46.83;97173.84;5005709;28;20190;-71
2022/05/14 10:06:27;;;;;;;5.05;2.00;;;;;;;20.23;47.88;97173.66;5006342;28;20210;-70
2022/05/14 10:09:15;;;;;;;2.10;1.60;;;;;;;20.02;47.72;97171.41;5012933;28;20225;-71
2022/05/14 10:11:46;;;;;;;4.07;1.88;;;;;;;20.15;47.32;97166.28;5012941;28;20548;-70
2022/05/14 10:14:15;;;;;;;5.90;2.00;;;;;;;19.95;48.68;97168.28;5012443;28;20215;-69
2022/05/14 10:17:09;;;;;;;4.22;1.70;;;;;;;20.12;47.75;97166.81;4994754;28;20647;-69
2022/05/14 10:19:55;;;;;;;6.68;2.10;;;;;;;20.19;47.46;97167.28;5011936;28;20179;-70
2022/05/14 10:28:53;;;;;;;2.30;1.63;;;;;;;20.24;47.43;97159.25;5011596;28;20194;-67
2022/05/14 10:31:26;;;;;;;3.10;1.85;;;;;;;20.59;47.65;97154.72;4997184;28;20194;-70
2022/05/14 10:33:57;;;;;;;2.10;1.92;;;;;;;20.23;47.23;97151.53;5012575;28;20175;-69
2022/05/14 10:36:44;;;;;;;5.75;2.25;;;;;;;20.32;47.85;97161.38;5012674;28;20194;-69
2022/05/14 10:39:19;;;;;;;4.18;2.22;;;;;;;20.07;47.76;97147.41;4991008;28;20186;-69
2022/05/14 10:41:51;;;;;;;1.92;1.67;;;;;;;20.43;47.44;97154.09;5012135;28;20182;-69
2022/05/14 10:44:19;;;;;;;6.07;1.80;;;;;;;20.41;48.70;97142.91;5012071;28;20690;-70
2022/05/14 10:46:47;;;;;;;4.40;2.40;;;;;;;20.39;48.56;97147.75;5012076;28;20221;-69
2022/05/14 10:49:24;;;;;;;1.85;1.75;;;;;;;20.78;48.16;97144.16;5005571;28;20687;-71
2022/05/14 10:51:52;;;;;;;4.95;2.00;;;;;;;20.83;47.52;97152.91;5012364;28;20652;-70
2022/05/14 10:54:21;;;;;;;2.65;1.92;;;;;;;20.07;47.88;97145.56;5012341;28;20203;-69
2022/05/14 10:57:00;;;;;;;5.22;2.33;;;;;;;20.11;47.88;97145.81;5025711;28;20187;-71
2022/05/14 10:59:42;;;;;;;2.33;2.10;;;;;;;20.37;47.78;97143.75;5008424;28;20191;-69
2022/05/14 11:02:13;;;;;;;3.75;2.00;;;;;;;20.28;47.09;97146.22;4997942;28;20187;-70
2022/05/14 11:04:38;;;;;;;3.40;1.88;;;;;;;20.41;47.88;97140.25;5012134;28;20179;-70
2022/05/14 11:07:10;;;;;;;3.45;2.17;;;;;;;20.12;46.98;97145.50;5012181;28;20203;-70
2022/05/14 11:09:38;;;;;;;3.35;2.05;;;;;;;20.41;46.90;97140.25;5011258;28;20218;-71
2022/05/14 11:12:08;;;;;;;3.60;2.03;;;;;;;20.53;47.67;97139.88;5015604;28;20266;-70
2022/05/14 11:14:41;;;;;;;3.20;1.90;;;;;;;20.24;47.45;97153.16;5015422;28;20258;-70
2022/05/14 11:17:30;;;;;;;6.50;2.17;;;;;;;20.24;47.68;97145.94;5020912;28;20192;-70
2022/05/14 11:20:04;;;;;;;3.38;1.95;;;;;;;20.36;46.88;97142.16;5013933;28;20195;-70
2022/05/14 11:22:35;;;;;;;5.35;1.88;;;;;;;20.70;46.67;97137.56;5015130;28;20544;-70
2022/05/14 11:25:22;;;;;;;2.58;1.70;;;;;;;20.70;46.62;97141.03;5015503;28;20188;-70
2022/05/14 11:28:13;;;;;;;3.50;1.70;;;;;;;20.28;46.46;97144.31;5015719;28;20215;-71
2022/05/14 11:30:48;;;;;;;8.38;2.15;;;;;;;20.42;46.46;97128.53;5006644;28;20698;-70
2022/05/14 11:33:25;;;;;;;2.92;1.92;;;;;;;20.52;46.12;97132.94;5015346;28;20266;-70
2022/05/14 11:35:54;;;;;;;4.78;1.80;;;;;;;20.71;46.75;97141.81;5015267;28;20187;-70
2022/05/14 11:38:26;;;;;;;4.70;2.00;;;;;;;20.44;46.03;97136.25;5006199;28;20187;-70
2022/05/14 11:41:07;;;;;;;2.20;2.00;;;;;;;20.31;47.47;97135.00;5003210;28;20235;-70
2022/05/14 11:43:36;;;;;;;3.60;1.80;;;;;;;20.50;46.48;97125.25;5013613;28;20258;-69
2022/05/14 11:46:21;;;;;;;3.80;2.20;;;;;;;20.48;46.18;97130.06;4998614;28;20215;-69
2022/05/14 11:49:03;;;;;;;3.72;2.15;;;;;;;20.48;45.50;97123.94;5005713;28;20593;-71
2022/05/14 11:51:41;;;;;;;2.63;1.80;;;;;;;20.79;45.61;97121.78;5014724;28;20198;-70
2022/05/14 11:54:44;;;;;;;3.55;1.77;;;;;;;20.81;45.66;97131.06;5013625;28;20191;-70
2022/05/14 11:57:12;;;;;;;1.67;1.52;;;;;;;20.71;44.52;97131.16;5014692;28;20262;-70
2022/05/14 11:59:49;;;;;;;4.30;2.00;;;;;;;20.54;44.72;97126.28;5014480;28;20648;-69
2022/05/14 12:02:51;;;;;;;1.92;1.67;;;;;;;20.66;44.50;97125.91;5015023;28;20222;-70
2022/05/14 12:05:21;;;;;;;2.40;1.80;;;;;;;20.75;44.77;97116.19;5014768;28;20303;-70
2022/05/14 12:08:25;;;;;;;1.83;1.70;;;;;;;20.83;44.42;97104.13;5014642;28;20675;-71
2022/05/14 12:11:19;;;;;;;6.53;2.45;;;;;;;21.07;44.47;97105.69;5008012;28;20550;-70